createdAt,value
2022-12-27T00:02:01.424Z,55.40
2022-12-27T00:04:28.610Z,55.40
2022-12-27T00:06:55.561Z,55.50
2022-12-27T00:09:22.708Z,55.60
2022-12-27T00:11:52.377Z,55.60
2022-12-27T00:14:21.900Z,55.60
2022-12-27T00:16:48.906Z,55.50
2022-12-27T00:19:15.595Z,55.50
2022-12-27T00:21:42.680Z,55.50
2022-12-27T00:24:10.283Z,55.40
2022-12-27T00:26:38.194Z,55.90
2022-12-27T00:29:05.890Z,55.50
2022-12-27T00:31:33.639Z,55.50
2022-12-27T00:34:02.906Z,55.50
2022-12-27T00:36:31.156Z,55.60
2022-12-27T00:38:59.012Z,55.60
2022-12-27T00:41:26.203Z,55.60
2022-12-27T00:43:53.023Z,55.60
2022-12-27T00:46:20.072Z,55.60
2022-12-27T00:48:47.139Z,55.70
2022-12-27T00:51:17.291Z,55.80
2022-12-27T00:53:44.831Z,55.80
2022-12-27T00:56:15.166Z,55.80
2022-12-27T00:58:43.690Z,55.90
2022-12-27T01:01:13.209Z,55.90
2022-12-27T01:03:40.131Z,55.90
2022-12-27T01:06:12.777Z,55.80
2022-12-27T01:08:39.947Z,55.90
2022-12-27T01:11:07.373Z,55.80
2022-12-27T01:13:35.489Z,55.80
2022-12-27T01:16:02.506Z,55.80
2022-12-27T01:18:30.035Z,55.80
2022-12-27T01:20:56.717Z,55.80
2022-12-27T01:23:23.505Z,55.90
2022-12-27T01:25:58.529Z,55.80
2022-12-27T01:28:25.304Z,55.80
2022-12-27T01:30:52.064Z,55.90
2022-12-27T01:33:19.528Z,55.80
2022-12-27T01:35:46.390Z,55.90
2022-12-27T01:38:13.276Z,56.00
2022-12-27T01:40:40.322Z,56.00
2022-12-27T01:43:19.557Z,56.00
2022-12-27T01:45:47.874Z,56.00
2022-12-27T01:48:23.915Z,56.10
2022-12-27T01:50:58.784Z,56.10
2022-12-27T01:53:34.219Z,56.10
2022-12-27T01:56:14.704Z,56.10
2022-12-27T01:58:56.262Z,56.20
2022-12-27T02:01:27.496Z,56.20
2022-12-27T02:04:04.857Z,56.20
2022-12-27T02:06:34.700Z,56.20
2022-12-27T02:09:20.820Z,56.30
2022-12-27T02:11:52.539Z,56.60
2022-12-27T02:14:27.690Z,57.10
2022-12-27T02:16:58.286Z,56.50
2022-12-27T02:19:59.181Z,56.50
2022-12-27T02:22:57.923Z,56.60
2022-12-27T02:25:47.860Z,56.60
2022-12-27T02:28:49.270Z,56.70
2022-12-27T02:31:24.801Z,56.70
2022-12-27T02:33:53.124Z,56.70
2022-12-27T02:36:30.400Z,56.70
2022-12-27T02:39:01.024Z,56.70
2022-12-27T02:41:48.429Z,56.60
2022-12-27T02:44:35.207Z,56.60
2022-12-27T02:47:21.568Z,56.50
2022-12-27T02:50:06.829Z,56.40
2022-12-27T02:53:04.031Z,56.50
2022-12-27T02:56:18.875Z,56.40
2022-12-27T02:59:08.742Z,56.40
2022-12-27T03:02:12.570Z,56.50
2022-12-27T03:04:54.582Z,56.50
2022-12-27T03:07:52.916Z,56.50
2022-12-27T03:11:17.245Z,56.50
2022-12-27T03:14:23.241Z,56.60
2022-12-27T03:17:02.399Z,56.60
2022-12-27T03:20:08.926Z,56.60
2022-12-27T03:22:57.613Z,56.60
2022-12-27T03:25:28.044Z,56.50
2022-12-27T03:28:19.572Z,56.40
2022-12-27T03:31:13.737Z,56.40
2022-12-27T03:33:42.548Z,56.50
2022-12-27T03:36:39.677Z,56.50
2022-12-27T03:39:15.651Z,56.50
2022-12-27T03:42:07.635Z,56.50
2022-12-27T03:44:35.763Z,56.50
2022-12-27T03:47:21.264Z,56.50
2022-12-27T03:49:56.340Z,56.60
2022-12-27T03:52:34.763Z,56.50
2022-12-27T03:55:02.495Z,56.50
2022-12-27T03:57:31.071Z,56.50
2022-12-27T03:59:58.084Z,56.50
2022-12-27T04:02:25.040Z,56.50
2022-12-27T04:04:51.952Z,56.50
2022-12-27T04:07:18.916Z,56.50
2022-12-27T04:10:04.110Z,56.50
2022-12-27T04:12:50.059Z,56.50
2022-12-27T04:15:35.542Z,56.50
2022-12-27T04:18:21.285Z,56.50
2022-12-27T04:21:06.770Z,56.60
2022-12-27T04:23:52.371Z,56.50
2022-12-27T04:26:37.818Z,56.40
2022-12-27T04:29:23.290Z,56.50
2022-12-27T04:32:08.662Z,56.50
2022-12-27T04:34:44.123Z,56.50
2022-12-27T04:37:19.888Z,56.50
2022-12-27T04:40:06.111Z,56.60
2022-12-27T04:42:51.745Z,56.60
2022-12-27T04:45:37.473Z,56.60
2022-12-27T04:48:23.585Z,56.60
2022-12-27T04:51:08.753Z,56.60
2022-12-27T04:53:54.825Z,56.70
2022-12-27T04:56:21.544Z,56.60
2022-12-27T04:59:07.116Z,56.70
2022-12-27T05:01:53.842Z,56.70
2022-12-27T05:04:20.955Z,56.70
2022-12-27T05:06:47.934Z,56.70
2022-12-27T05:09:33.481Z,56.80
2022-12-27T05:12:18.818Z,56.80
2022-12-27T05:14:45.800Z,56.70
2022-12-27T05:17:12.610Z,56.70
2022-12-27T05:19:39.239Z,56.70
2022-12-27T05:22:24.764Z,56.60
2022-12-27T05:25:10.110Z,56.50
2022-12-27T05:27:37.718Z,56.40
2022-12-27T05:30:05.050Z,56.30
2022-12-27T05:32:32.053Z,56.30
2022-12-27T05:34:59.025Z,56.30
2022-12-27T05:37:25.675Z,56.30
2022-12-27T05:39:52.677Z,56.40
2022-12-27T05:42:19.364Z,56.50
2022-12-27T05:44:46.183Z,56.50
2022-12-27T05:47:13.127Z,56.60
2022-12-27T05:49:39.899Z,56.70
2022-12-27T05:52:06.585Z,56.70
2022-12-27T05:54:33.253Z,56.70
2022-12-27T05:56:59.885Z,56.70
2022-12-27T05:59:26.651Z,56.80
2022-12-27T06:01:53.425Z,56.90
2022-12-27T06:04:20.442Z,56.90
2022-12-27T06:06:47.049Z,56.90
2022-12-27T06:09:14.361Z,56.90
2022-12-27T06:11:41.386Z,56.90
2022-12-27T06:14:08.422Z,56.90
2022-12-27T06:16:35.227Z,56.80
2022-12-27T06:19:02.525Z,56.80
2022-12-27T06:21:29.399Z,56.80
2022-12-27T06:23:56.020Z,56.80
2022-12-27T06:26:28.278Z,56.80
2022-12-27T06:28:58.003Z,56.80
2022-12-27T06:31:25.805Z,56.70
2022-12-27T06:33:53.206Z,56.70
2022-12-27T06:36:22.583Z,56.80
2022-12-27T06:38:49.661Z,56.70
2022-12-27T06:41:18.510Z,56.70
2022-12-27T06:43:46.554Z,56.70
2022-12-27T06:46:18.488Z,56.50
2022-12-27T06:48:47.274Z,56.50
2022-12-27T06:51:15.740Z,56.30
2022-12-27T06:53:46.197Z,56.40
2022-12-27T06:56:18.116Z,56.50
2022-12-27T06:58:46.496Z,56.50
2022-12-27T07:01:23.262Z,56.40
2022-12-27T07:03:51.476Z,56.30
2022-12-27T07:06:19.632Z,56.40
2022-12-27T07:08:47.605Z,56.30
2022-12-27T07:11:15.751Z,56.40
2022-12-27T07:13:44.809Z,56.40
2022-12-27T07:16:14.830Z,56.50
2022-12-27T07:18:42.349Z,56.50
2022-12-27T07:21:12.022Z,56.50
2022-12-27T07:23:38.778Z,56.50
2022-12-27T07:26:10.905Z,56.40
2022-12-27T07:28:38.606Z,56.50
2022-12-27T07:31:11.486Z,56.50
2022-12-27T07:33:38.810Z,56.50
2022-12-27T07:36:08.872Z,56.50
2022-12-27T07:38:36.039Z,56.40
2022-12-27T07:41:03.315Z,56.40
2022-12-27T07:43:34.003Z,56.30
2022-12-27T07:46:11.345Z,56.30
2022-12-27T07:48:38.589Z,56.30
2022-12-27T07:51:06.177Z,56.30
2022-12-27T07:53:33.518Z,56.30
2022-12-27T07:56:06.483Z,56.40
2022-12-27T07:58:36.836Z,56.50
2022-12-27T08:01:05.113Z,56.50
2022-12-27T08:03:32.197Z,56.50
2022-12-27T08:05:59.299Z,56.40
2022-12-27T08:08:36.831Z,56.30
2022-12-27T08:11:05.815Z,56.50
2022-12-27T08:13:33.189Z,56.50
2022-12-27T08:16:00.090Z,56.50
2022-12-27T08:18:27.494Z,56.20
2022-12-27T08:20:54.798Z,56.30
2022-12-27T08:23:21.745Z,56.70
2022-12-27T08:25:49.208Z,56.40
2022-12-27T08:28:18.289Z,56.20
2022-12-27T08:30:46.640Z,56.40
2022-12-27T08:33:15.224Z,56.40
2022-12-27T08:35:53.504Z,56.30
2022-12-27T08:38:20.785Z,56.40
2022-12-27T08:40:47.584Z,56.40
2022-12-27T08:43:14.649Z,56.50
2022-12-27T08:45:41.915Z,56.50
2022-12-27T08:48:08.756Z,56.50
2022-12-27T08:50:36.094Z,56.20
2022-12-27T08:53:04.646Z,56.00
2022-12-27T08:55:32.443Z,56.20
2022-12-27T08:58:09.181Z,56.20
2022-12-27T09:00:38.999Z,56.20
2022-12-27T09:03:05.861Z,56.20
2022-12-27T09:05:38.037Z,56.30
2022-12-27T09:08:08.322Z,56.40
2022-12-27T09:10:34.985Z,56.00
2022-12-27T09:13:02.242Z,56.00
2022-12-27T09:15:29.413Z,56.10
2022-12-27T09:17:56.212Z,56.10
2022-12-27T09:20:23.397Z,56.20
2022-12-27T09:22:52.094Z,56.40
2022-12-27T09:25:18.859Z,56.30
2022-12-27T09:27:45.698Z,56.50
2022-12-27T09:30:12.702Z,56.50
2022-12-27T09:32:39.736Z,56.50
2022-12-27T09:35:06.615Z,56.40
2022-12-27T09:37:33.377Z,56.40
2022-12-27T09:40:00.114Z,56.30
2022-12-27T09:43:06.210Z,56.20
2022-12-27T09:45:43.573Z,55.90
2022-12-27T09:48:38.268Z,56.00
2022-12-27T09:51:19.642Z,56.00
2022-12-27T09:53:54.643Z,56.10
2022-12-27T09:56:54.020Z,56.00
2022-12-27T09:59:34.557Z,55.50
2022-12-27T10:02:01.572Z,55.70
2022-12-27T10:05:09.733Z,56.00
2022-12-27T10:07:34.061Z,56.10
2022-12-27T10:10:43.197Z,56.00
2022-12-27T10:13:31.894Z,55.90
2022-12-27T10:16:09.046Z,56.00
2022-12-27T10:18:47.815Z,56.20
2022-12-27T10:21:24.517Z,55.90
2022-12-27T10:24:34.110Z,55.60
2022-12-27T10:27:00.911Z,55.30
2022-12-27T10:29:28.701Z,55.60
2022-12-27T10:31:55.651Z,56.70
2022-12-27T10:34:24.367Z,58.20
2022-12-27T10:36:52.955Z,58.70
2022-12-27T10:39:33.769Z,58.90
2022-12-27T10:42:23.681Z,58.90
2022-12-27T10:44:50.580Z,60.00
2022-12-27T10:47:18.229Z,59.00
2022-12-27T10:50:03.049Z,55.40
2022-12-27T10:52:34.265Z,53.00
2022-12-27T10:55:01.218Z,53.50
2022-12-27T10:57:30.814Z,54.10
2022-12-27T11:00:18.389Z,52.00
2022-12-27T11:02:56.323Z,51.20
2022-12-27T11:05:32.139Z,50.90
2022-12-27T11:08:01.200Z,50.20
2022-12-27T11:10:31.436Z,51.50
2022-12-27T11:13:06.423Z,51.70
2022-12-27T11:15:40.850Z,50.60
2022-12-27T11:18:16.947Z,51.10
2022-12-27T11:20:47.393Z,50.80
2022-12-27T11:23:17.089Z,51.30
2022-12-27T11:25:53.711Z,52.80
2022-12-27T11:28:33.611Z,53.50
2022-12-27T11:31:04.922Z,53.90
2022-12-27T11:33:46.974Z,54.00
2022-12-27T11:36:16.105Z,51.50
2022-12-27T11:38:49.434Z,51.60
2022-12-27T11:41:42.496Z,49.40
2022-12-27T11:44:16.284Z,48.80
2022-12-27T11:46:53.927Z,49.40
2022-12-27T11:49:35.871Z,47.60
2022-12-27T11:52:39.860Z,47.20
2022-12-27T11:55:31.075Z,46.60
2022-12-27T11:58:36.270Z,46.70
2022-12-27T12:01:40.872Z,47.10
2022-12-27T12:04:37.467Z,47.80
2022-12-27T12:07:27.503Z,48.50
2022-12-27T12:10:13.267Z,48.50
2022-12-27T12:13:24.875Z,48.60
2022-12-27T12:16:06.465Z,48.00
2022-12-27T12:18:50.000Z,47.70
2022-12-27T12:21:29.131Z,48.10
2022-12-27T12:24:06.698Z,48.40
2022-12-27T12:27:04.015Z,48.70
2022-12-27T12:29:53.739Z,48.40
2022-12-27T12:32:32.798Z,49.00
2022-12-27T12:35:18.464Z,49.40
2022-12-27T12:38:02.542Z,49.20
2022-12-27T12:40:51.863Z,49.20
2022-12-27T12:43:52.852Z,49.30
2022-12-27T12:46:34.189Z,49.40
2022-12-27T12:49:07.104Z,49.70
2022-12-27T12:52:10.996Z,49.40
2022-12-27T12:55:12.545Z,49.70
2022-12-27T12:57:54.945Z,49.70
2022-12-27T13:00:51.773Z,49.60
2022-12-27T13:03:40.074Z,50.10
2022-12-27T13:06:36.594Z,50.40
2022-12-27T13:09:34.233Z,50.80
2022-12-27T13:12:19.623Z,50.70
2022-12-27T13:15:31.096Z,50.90
2022-12-27T13:18:09.562Z,51.00
2022-12-27T13:20:54.664Z,51.30
2022-12-27T13:23:54.745Z,51.10
2022-12-27T13:26:40.305Z,51.10
2022-12-27T13:29:43.599Z,51.20
2022-12-27T13:32:47.715Z,51.30
2022-12-27T13:35:23.241Z,51.20
2022-12-27T13:38:08.000Z,50.90
2022-12-27T13:40:44.199Z,51.10
2022-12-27T13:43:26.583Z,50.90
2022-12-27T13:46:47.700Z,51.10
2022-12-27T13:49:41.082Z,50.80
2022-12-27T13:52:32.132Z,51.00
2022-12-27T13:55:28.184Z,51.20
2022-12-27T13:58:00.597Z,51.30
2022-12-27T14:00:36.253Z,51.50
2022-12-27T14:03:40.882Z,51.70
2022-12-27T14:06:14.168Z,51.40
2022-12-27T14:08:56.765Z,51.50
2022-12-27T14:11:50.892Z,51.30
2022-12-27T14:14:20.331Z,50.50
2022-12-27T14:17:14.561Z,50.80
2022-12-27T14:19:50.079Z,50.60
2022-12-27T14:22:28.846Z,50.70
2022-12-27T14:25:20.164Z,50.90
2022-12-27T14:28:09.467Z,51.00
2022-12-27T14:31:02.941Z,51.10
2022-12-27T14:33:54.353Z,51.20
2022-12-27T14:36:58.724Z,51.40
2022-12-27T14:39:54.956Z,51.50
2022-12-27T14:43:05.281Z,51.50
2022-12-27T14:45:56.986Z,51.40
2022-12-27T14:48:54.516Z,51.40
2022-12-27T14:52:08.743Z,51.30
2022-12-27T14:54:56.363Z,51.30
2022-12-27T14:57:33.538Z,51.30
2022-12-27T15:00:13.394Z,51.20
2022-12-27T15:02:56.036Z,51.20
2022-12-27T15:05:25.653Z,51.30
2022-12-27T15:08:13.650Z,51.30
2022-12-27T15:10:47.067Z,51.30
2022-12-27T15:13:22.686Z,51.30
2022-12-27T15:15:58.491Z,51.40
2022-12-27T15:18:25.134Z,51.40
2022-12-27T15:21:00.860Z,51.50
2022-12-27T15:23:53.798Z,51.20
2022-12-27T15:26:31.270Z,51.80
2022-12-27T15:29:43.043Z,51.40
2022-12-27T15:32:39.545Z,51.40
2022-12-27T15:35:24.839Z,51.50
2022-12-27T15:38:05.086Z,51.50
2022-12-27T15:40:34.986Z,51.70
2022-12-27T15:43:40.057Z,51.70
2022-12-27T15:46:11.993Z,51.80
2022-12-27T15:49:12.800Z,51.80
2022-12-27T15:52:00.617Z,51.90
2022-12-27T15:55:12.242Z,51.90
2022-12-27T15:58:13.227Z,51.90
2022-12-27T16:00:41.079Z,51.90
2022-12-27T16:03:37.123Z,51.90
2022-12-27T16:06:07.716Z,51.90
2022-12-27T16:08:36.409Z,51.90
2022-12-27T16:11:08.932Z,51.90
2022-12-27T16:13:41.758Z,52.00
2022-12-27T16:16:38.859Z,52.00
2022-12-27T16:19:25.264Z,52.10
2022-12-27T16:21:52.505Z,52.10
2022-12-27T16:24:23.269Z,52.10
2022-12-27T16:26:54.837Z,52.10
2022-12-27T16:29:27.532Z,52.10
2022-12-27T16:32:20.267Z,52.20
2022-12-27T16:34:51.408Z,52.30
2022-12-27T16:37:43.019Z,52.40
2022-12-27T16:40:44.036Z,52.50
2022-12-27T16:43:10.934Z,52.50
2022-12-27T16:45:50.130Z,52.50
2022-12-27T16:48:35.620Z,52.60
2022-12-27T16:51:24.405Z,52.60
2022-12-27T16:54:17.005Z,52.60
2022-12-27T16:56:47.985Z,52.70
2022-12-27T16:59:52.671Z,52.60
2022-12-27T17:02:44.433Z,52.70
2022-12-27T17:05:17.061Z,52.70
2022-12-27T17:07:43.787Z,52.70
2022-12-27T17:10:34.093Z,52.70
2022-12-27T17:13:23.642Z,52.80
2022-12-27T17:15:59.841Z,52.70
2022-12-27T17:18:30.480Z,52.60
2022-12-27T17:21:04.890Z,52.60
2022-12-27T17:23:37.490Z,52.70
2022-12-27T17:26:53.515Z,52.60
2022-12-27T17:29:57.699Z,52.90
2022-12-27T17:32:30.486Z,52.80
2022-12-27T17:35:24.528Z,52.70
2022-12-27T17:38:20.183Z,52.90
2022-12-27T17:41:13.646Z,52.80
2022-12-27T17:44:24.403Z,52.90
2022-12-27T17:47:02.121Z,52.80
2022-12-27T17:49:31.312Z,52.90
2022-12-27T17:52:22.714Z,53.00
2022-12-27T17:55:08.283Z,53.00
2022-12-27T17:57:53.557Z,53.10
2022-12-27T18:00:34.508Z,53.00
2022-12-27T18:03:07.034Z,53.20
2022-12-27T18:05:39.780Z,53.20
2022-12-27T18:08:17.818Z,53.20
2022-12-27T18:10:44.866Z,53.30
2022-12-27T18:13:17.855Z,53.30
2022-12-27T18:15:47.407Z,53.40
2022-12-27T18:18:42.631Z,53.20
2022-12-27T18:21:26.662Z,53.40
2022-12-27T18:23:54.116Z,53.40
2022-12-27T18:26:32.113Z,53.70
2022-12-27T18:28:59.416Z,53.70
2022-12-27T18:31:36.104Z,53.70
2022-12-27T18:34:10.842Z,53.60
2022-12-27T18:36:47.176Z,53.60
2022-12-27T18:39:23.656Z,53.60
2022-12-27T18:41:53.123Z,53.70
2022-12-27T18:44:27.420Z,53.60
2022-12-27T18:46:58.468Z,53.60
2022-12-27T18:49:36.917Z,53.60
2022-12-27T18:52:15.864Z,53.80
2022-12-27T18:54:43.102Z,53.80
2022-12-27T18:57:31.825Z,53.70
2022-12-27T19:00:24.256Z,54.00
2022-12-27T19:02:53.152Z,53.90
2022-12-27T19:05:19.956Z,53.80
2022-12-27T19:08:00.315Z,53.80
2022-12-27T19:10:29.099Z,53.90
2022-12-27T19:12:57.144Z,54.00
2022-12-27T19:15:28.418Z,54.00
2022-12-27T19:18:02.157Z,54.00
2022-12-27T19:20:34.827Z,54.00
2022-12-27T19:23:24.236Z,54.10
2022-12-27T19:26:04.888Z,54.10
2022-12-27T19:28:32.855Z,54.20
2022-12-27T19:31:18.193Z,54.20
2022-12-27T19:34:16.340Z,54.20
2022-12-27T19:36:44.791Z,54.30
2022-12-27T19:39:34.467Z,54.10
2022-12-27T19:42:07.349Z,54.20
2022-12-27T19:44:34.642Z,54.10
2022-12-27T19:47:01.568Z,54.10
2022-12-27T19:49:44.902Z,54.10
2022-12-27T19:52:19.261Z,54.10
2022-12-27T19:54:47.326Z,54.20
2022-12-27T19:57:14.295Z,54.20
2022-12-27T19:59:41.604Z,54.30
2022-12-27T20:02:08.707Z,54.40
2022-12-27T20:04:35.885Z,54.40
2022-12-27T20:07:02.938Z,54.40
2022-12-27T20:09:29.883Z,54.40
2022-12-27T20:11:56.870Z,54.40
2022-12-27T20:14:23.746Z,54.50
2022-12-27T20:16:50.764Z,54.40
2022-12-27T20:19:18.099Z,54.40
2022-12-27T20:21:45.489Z,54.40
2022-12-27T20:24:12.875Z,54.40
2022-12-27T20:26:40.900Z,54.50
2022-12-27T20:29:07.652Z,54.50
2022-12-27T20:31:37.663Z,54.50
2022-12-27T20:34:11.141Z,54.50
2022-12-27T20:36:38.261Z,54.60
2022-12-27T20:39:07.105Z,54.60
2022-12-27T20:41:34.032Z,54.70
2022-12-27T20:44:01.028Z,54.80
2022-12-27T20:46:28.326Z,54.90
2022-12-27T20:48:56.480Z,55.00
2022-12-27T20:51:27.301Z,55.20
2022-12-27T20:53:59.131Z,55.20
2022-12-27T20:56:26.259Z,55.70
2022-12-27T20:58:53.664Z,55.20
2022-12-27T21:01:23.030Z,55.30
2022-12-27T21:03:50.222Z,55.30
2022-12-27T21:06:20.489Z,55.40
2022-12-27T21:08:54.308Z,55.60
2022-12-27T21:11:30.218Z,55.50
2022-12-27T21:13:57.568Z,55.60
2022-12-27T21:16:27.283Z,55.50
2022-12-27T21:18:55.038Z,55.50
2022-12-27T21:21:27.950Z,55.60
2022-12-27T21:23:56.979Z,55.70
2022-12-27T21:26:27.893Z,55.70
2022-12-27T21:28:55.566Z,55.70
2022-12-27T21:31:22.872Z,55.70
2022-12-27T21:33:50.299Z,55.70
2022-12-27T21:36:22.313Z,55.80
2022-12-27T21:38:49.518Z,56.30
2022-12-27T21:41:19.245Z,55.80
2022-12-27T21:43:47.946Z,55.70
2022-12-27T21:46:17.269Z,55.80
2022-12-27T21:48:44.580Z,55.80
2022-12-27T21:51:14.067Z,55.80
2022-12-27T21:53:41.773Z,55.90
2022-12-27T21:56:10.025Z,55.80
2022-12-27T21:58:37.967Z,55.80
2022-12-27T22:01:08.704Z,56.20
2022-12-27T22:03:38.167Z,55.70
2022-12-27T22:06:17.020Z,55.70
2022-12-27T22:08:46.119Z,55.80
2022-12-27T22:11:13.795Z,55.80
2022-12-27T22:13:41.865Z,56.10
2022-12-27T22:16:14.548Z,56.10
2022-12-27T22:18:42.910Z,56.20
2022-12-27T22:21:12.384Z,56.10
2022-12-27T22:23:41.566Z,56.00
2022-12-27T22:26:28.868Z,56.00
2022-12-27T22:28:56.598Z,56.10
2022-12-27T22:31:27.423Z,55.90
2022-12-27T22:33:54.309Z,56.10
2022-12-27T22:36:23.795Z,56.20
2022-12-27T22:38:51.226Z,56.30
2022-12-27T22:41:20.713Z,56.30
2022-12-27T22:43:52.672Z,56.30
2022-12-27T22:46:20.095Z,56.30
2022-12-27T22:48:51.681Z,56.30
2022-12-27T22:51:22.665Z,56.20
2022-12-27T22:53:50.391Z,56.30
2022-12-27T22:56:23.061Z,56.20
2022-12-27T22:58:50.403Z,56.30
2022-12-27T23:01:27.656Z,56.20
2022-12-27T23:03:55.612Z,56.30
2022-12-27T23:06:23.509Z,56.30
2022-12-27T23:08:50.660Z,56.20
2022-12-27T23:11:20.754Z,56.40
2022-12-27T23:13:49.015Z,56.40
2022-12-27T23:16:15.840Z,56.30
2022-12-27T23:18:42.765Z,56.30
2022-12-27T23:21:20.732Z,56.20
2022-12-27T23:23:51.957Z,56.20
2022-12-27T23:26:22.316Z,56.20
2022-12-27T23:28:51.017Z,56.30
2022-12-27T23:31:19.883Z,56.40
2022-12-27T23:33:47.073Z,56.30
2022-12-27T23:36:15.036Z,56.30
2022-12-27T23:38:42.695Z,56.40
2022-12-27T23:41:19.074Z,56.30
2022-12-27T23:43:55.476Z,56.30
2022-12-27T23:46:33.629Z,56.30
2022-12-27T23:49:03.807Z,56.40
2022-12-27T23:51:31.966Z,56.30
2022-12-27T23:53:59.437Z,56.30
2022-12-27T23:56:29.619Z,56.50
2022-12-27T23:58:58.424Z,56.50
